Time;durP1;ratioP1;P1;durP2;ratioP2;P2;SDS_P1;SDS_P2;PMS_P1;PMS_P2;Temp;Humidity;BMP_temperature;BMP_pressure;BME280_temperature;BME280_humidity;BME280_pressure;Samples;Min_cycle;Max_cycle;Signal;HPM_P1;HPM_P2
2021/05/31 00:00:33;;;;;;;22.00;17.45;;;;;;;;;;4172734;34;20111;-85
2021/05/31 00:03:05;;;;;;;19.65;17.90;;;;;;;;;;4176640;34;20176;-85
2021/05/31 00:05:36;;;;;;;18.73;17.12;;;;;;;;;;4175474;34;20118;-85
2021/05/31 00:08:08;;;;;;;17.10;14.65;;;;;;;;;;4162307;34;20064;-85
2021/05/31 00:10:39;;;;;;;16.08;14.60;;;;;;;;;;4174593;34;20160;-85
2021/05/31 00:13:11;;;;;;;17.50;15.40;;;;;;;;;;4177666;34;20107;-83
2021/05/31 00:15:41;;;;;;;16.52;13.32;;;;;;;;;;4174780;34;20095;-85
2021/05/31 00:18:15;;;;;;;14.38;12.98;;;;;;;;;;4163003;34;20216;-85
2021/05/31 00:20:45;;;;;;;13.75;12.43;;;;;;;;;;4170439;34;20051;-85
2021/05/31 00:23:18;;;;;;;14.48;12.50;;;;;;;;;;4172052;34;20497;-85
2021/05/31 00:25:48;;;;;;;19.42;17.55;;;;;;;;;;4179900;34;20104;-85
2021/05/31 00:28:20;;;;;;;19.62;17.45;;;;;;;;;;4170240;34;20131;-85
2021/05/31 00:30:50;;;;;;;19.12;17.05;;;;;;;;;;4171003;34;20071;-84
2021/05/31 00:33:19;;;;;;;19.05;17.27;;;;;;;;;;4174767;34;20138;-85
2021/05/31 00:35:53;;;;;;;18.25;14.45;;;;;;;;;;4159102;34;20113;-85
2021/05/31 00:38:24;;;;;;;19.77;14.85;;;;;;;;;;4172582;34;20107;-84
2021/05/31 00:40:55;;;;;;;17.25;15.10;;;;;;;;;;4170788;34;20705;-84
2021/05/31 00:43:33;;;;;;;22.40;18.60;;;;;;;;;;4174548;34;20573;-85
2021/05/31 00:46:08;;;;;;;16.27;14.68;;;;;;;;;;4154945;34;20126;-84
2021/05/31 00:48:40;;;;;;;19.90;17.60;;;;;;;;;;4179126;34;20550;-85
2021/05/31 00:51:11;;;;;;;20.92;16.23;;;;;;;;;;4180350;34;20063;-85
2021/05/31 00:53:43;;;;;;;14.40;13.00;;;;;;;;;;4176186;34;20171;-85
2021/05/31 00:56:14;;;;;;;15.52;13.48;;;;;;;;;;4163715;34;20086;-84
2021/05/31 00:58:45;;;;;;;18.33;13.35;;;;;;;;;;4165555;34;20170;-85
2021/05/31 01:01:16;;;;;;;16.58;14.90;;;;;;;;;;4174951;34;20490;-85
2021/05/31 01:03:48;;;;;;;19.08;17.17;;;;;;;;;;4170718;34;20052;-86
2021/05/31 01:06:22;;;;;;;27.45;20.60;;;;;;;;;;4179363;34;20076;-85
2021/05/31 01:09:12;;;;;;;25.95;20.15;;;;;;;;;;4156429;34;20389;-87
2021/05/31 01:12:02;;;;;;;22.48;20.08;;;;;;;;;;4164244;34;20068;-85
2021/05/31 01:14:52;;;;;;;19.52;16.33;;;;;;;;;;4161581;34;20407;-85
2021/05/31 01:17:38;;;;;;;17.80;15.93;;;;;;;;;;4163052;34;20454;-84
2021/05/31 01:20:23;;;;;;;16.27;14.52;;;;;;;;;;4169140;34;20281;-84
2021/05/31 01:22:53;;;;;;;18.15;14.18;;;;;;;;;;4161347;34;20083;-85
2021/05/31 01:25:31;;;;;;;15.98;14.35;;;;;;;;;;4163858;34;20103;-85
2021/05/31 01:28:28;;;;;;;23.85;16.17;;;;;;;;;;4166339;34;20061;-85
2021/05/31 01:30:59;;;;;;;16.77;15.07;;;;;;;;;;4155216;34;20416;-85
2021/05/31 01:33:34;;;;;;;17.08;15.00;;;;;;;;;;4158841;34;20063;-85
2021/05/31 01:36:06;;;;;;;16.17;14.65;;;;;;;;;;4175169;34;20095;-85
2021/05/31 01:38:37;;;;;;;23.20;13.75;;;;;;;;;;4175770;34;20074;-84
2021/05/31 01:41:10;;;;;;;14.80;12.37;;;;;;;;;;4154567;34;20083;-85
2021/05/31 01:43:44;;;;;;;15.90;14.23;;;;;;;;;;4168891;34;20082;-85
2021/05/31 01:46:15;;;;;;;18.98;16.45;;;;;;;;;;4162534;34;20349;-85
2021/05/31 01:48:47;;;;;;;18.90;17.05;;;;;;;;;;4174852;34;20056;-85
2021/05/31 01:51:18;;;;;;;16.50;14.80;;;;;;;;;;4182933;34;20060;-85
2021/05/31 01:53:50;;;;;;;16.70;14.63;;;;;;;;;;4145148;34;20170;-86
2021/05/31 01:56:21;;;;;;;21.60;16.77;;;;;;;;;;4177740;34;20132;-84
2021/05/31 01:58:54;;;;;;;18.85;15.50;;;;;;;;;;4159587;34;20096;-85
2021/05/31 02:01:25;;;;;;;17.95;14.43;;;;;;;;;;4173378;34;20113;-85
2021/05/31 02:03:56;;;;;;;16.08;14.40;;;;;;;;;;4177550;34;20067;-86
2021/05/31 02:06:27;;;;;;;18.23;14.75;;;;;;;;;;4167644;34;20086;-85
2021/05/31 02:08:58;;;;;;;16.40;14.70;;;;;;;;;;4165614;34;20134;-84
2021/05/31 02:11:31;;;;;;;17.55;12.52;;;;;;;;;;4168450;34;20481;-85
2021/05/31 02:14:06;;;;;;;20.88;13.25;;;;;;;;;;4174571;34;20078;-84
2021/05/31 02:16:37;;;;;;;;;;;;;;;;;;4161675;34;20510;-84
2021/05/31 02:19:09;;;;;;;30.50;20.37;;;;;;;;;;4170108;34;20056;-85
2021/05/31 02:21:39;;;;;;;28.55;19.20;;;;;;;;;;4177666;34;20073;-85
2021/05/31 02:24:10;;;;;;;33.22;21.02;;;;;;;;;;4177800;34;20083;-85
2021/05/31 02:26:42;;;;;;;23.77;20.48;;;;;;;;;;4163560;34;20120;-85
2021/05/31 02:29:14;;;;;;;30.95;22.98;;;;;;;;;;4164365;34;20469;-85
2021/05/31 02:31:44;;;;;;;31.17;24.05;;;;;;;;;;4159525;34;20126;-85
2021/05/31 02:34:17;;;;;;;35.70;19.83;;;;;;;;;;4167230;34;20064;-85
2021/05/31 02:36:48;;;;;;;43.03;25.30;;;;;;;;;;4177819;34;20060;-85
2021/05/31 02:39:20;;;;;;;40.72;23.30;;;;;;;;;;4173132;34;20051;-85
2021/05/31 02:41:51;;;;;;;40.50;23.23;;;;;;;;;;4175685;34;20075;-86
2021/05/31 02:44:20;;;;;;;37.78;20.58;;;;;;;;;;4177604;34;20072;-85
2021/05/31 02:46:50;;;;;;;33.88;20.27;;;;;;;;;;4169063;34;20561;-85
2021/05/31 02:49:22;;;;;;;18.40;15.88;;;;;;;;;;4170286;34;20607;-86
2021/05/31 02:51:53;;;;;;;33.13;21.98;;;;;;;;;;4176351;34;20188;-85
2021/05/31 02:54:24;;;;;;;26.37;20.90;;;;;;;;;;4172710;34;20083;-85
2021/05/31 02:56:57;;;;;;;16.25;14.48;;;;;;;;;;4179051;34;20494;-85
2021/05/31 02:59:28;;;;;;;18.35;14.95;;;;;;;;;;4156539;34;20052;-85
2021/05/31 03:01:59;;;;;;;21.50;18.42;;;;;;;;;;4175348;34;20112;-85
2021/05/31 03:04:30;;;;;;;40.83;24.95;;;;;;;;;;4163269;34;20605;-86
2021/05/31 03:07:02;;;;;;;39.22;23.58;;;;;;;;;;4169351;34;20075;-85
2021/05/31 03:09:33;;;;;;;32.67;19.05;;;;;;;;;;4154507;34;20097;-85
2021/05/31 03:12:04;;;;;;;17.77;16.08;;;;;;;;;;4206126;28;20117;-91
2021/05/31 03:14:36;;;;;;;26.33;16.90;;;;;;;;;;4169707;34;20612;-91
2021/05/31 03:17:09;;;;;;;21.40;17.20;;;;;;;;;;4177145;34;20075;-92
2021/05/31 03:19:40;;;;;;;23.00;17.42;;;;;;;;;;4169680;34;20477;-91
2021/05/31 03:22:12;;;;;;;21.58;17.17;;;;;;;;;;4167043;34;20067;-93
2021/05/31 03:24:43;;;;;;;23.50;17.98;;;;;;;;;;4169838;34;20112;-93
2021/05/31 03:27:17;;;;;;;26.52;19.77;;;;;;;;;;4185231;34;20112;-94
2021/05/31 03:29:55;;;;;;;22.90;18.23;;;;;;;;;;4170797;34;20461;-92
2021/05/31 03:32:32;;;;;;;18.10;16.00;;;;;;;;;;4184421;34;20576;-94
2021/05/31 03:35:04;;;;;;;24.80;19.27;;;;;;;;;;4175858;34;20055;-93
2021/05/31 03:37:38;;;;;;;29.42;19.05;;;;;;;;;;4164688;34;20060;-93
2021/05/31 03:40:13;;;;;;;18.10;16.27;;;;;;;;;;4177729;34;20071;-90
2021/05/31 03:42:54;;;;;;;29.48;20.17;;;;;;;;;;4171122;34;20102;-92
2021/05/31 03:45:29;;;;;;;29.83;21.15;;;;;;;;;;4173116;34;20077;-93
2021/05/31 03:48:25;;;;;;;39.03;22.90;;;;;;;;;;4165158;34;20115;-94
2021/05/31 03:51:08;;;;;;;35.20;22.58;;;;;;;;;;4167293;34;20702;-91
2021/05/31 03:53:38;;;;;;;34.63;22.92;;;;;;;;;;4163975;34;20067;-92
2021/05/31 03:56:11;;;;;;;32.58;21.87;;;;;;;;;;4167735;34;20112;-94
2021/05/31 03:58:47;;;;;;;28.05;20.35;;;;;;;;;;4174182;34;20068;-92
2021/05/31 04:01:20;;;;;;;;;;;;;;;;;;4163920;34;20060;-92
2021/05/31 04:03:55;;;;;;;25.88;18.15;;;;;;;;;;4168056;34;19951;-92
2021/05/31 04:12:11;;;;;;;28.15;19.02;;;;;;;;;;4175640;34;20115;-93
2021/05/31 04:14:51;;;;;;;25.17;17.95;;;;;;;;;;4176433;34;20543;-93
2021/05/31 04:17:28;;;;;;;23.58;17.85;;;;;;;;;;4178030;34;20064;-92
2021/05/31 04:20:02;;;;;;;;;;;;;;;;;;4174033;34;20097;-93
2021/05/31 04:22:33;;;;;;;20.88;15.15;;;;;;;;;;4170922;34;19959;-92
2021/05/31 04:25:09;;;;;;;16.23;14.07;;;;;;;;;;4180490;34;20116;-91
2021/05/31 04:27:40;;;;;;;;;;;;;;;;;;4176910;34;20141;-93
2021/05/31 04:30:17;;;;;;;18.80;14.35;;;;;;;;;;4186525;34;19970;-93
2021/05/31 04:33:08;;;;;;;19.08;14.40;;;;;;;;;;4173568;34;20066;-94
2021/05/31 04:35:45;;;;;;;18.62;14.52;;;;;;;;;;4180593;34;20504;-92
2021/05/31 04:38:25;;;;;;;20.80;14.25;;;;;;;;;;4167451;34;20082;-92
2021/05/31 04:40:54;;;;;;;20.35;14.43;;;;;;;;;;4171137;34;20098;-91
2021/05/31 04:43:32;;;;;;;16.35;14.18;;;;;;;;;;4172553;34;20823;-93
2021/05/31 04:46:04;;;;;;;22.00;14.20;;;;;;;;;;4185602;34;20117;-94
2021/05/31 04:48:57;;;;;;;18.33;13.75;;;;;;;;;;4175682;34;21041;-95
2021/05/31 04:54:29;;;;;;;18.42;14.23;;;;;;;;;;4182849;34;20104;-95
2021/05/31 04:57:03;;;;;;;21.50;14.18;;;;;;;;;;4176285;34;20056;-96
2021/05/31 04:59:43;;;;;;;18.17;13.77;;;;;;;;;;4175542;34;20094;-95
2021/05/31 05:02:17;;;;;;;18.33;14.27;;;;;;;;;;4166957;34;20072;-95
2021/05/31 05:04:50;;;;;;;15.70;14.02;;;;;;;;;;4181383;34;20083;-96
2021/05/31 05:07:33;;;;;;;36.60;20.23;;;;;;;;;;4176404;34;20060;-96
2021/05/31 05:10:05;;;;;;;;;;;;;;;;;;4173811;34;20051;-95
2021/05/31 05:12:34;;;;;;;32.95;18.77;;;;;;;;;;4171427;34;20004;-95
2021/05/31 05:15:11;;;;;;;29.67;18.98;;;;;;;;;;4190993;34;20083;-95
2021/05/31 05:17:45;;;;;;;26.85;18.70;;;;;;;;;;4163822;34;20112;-95
2021/05/31 05:20:29;;;;;;;30.10;18.25;;;;;;;;;;4167545;34;20160;-96
2021/05/31 05:23:19;;;;;;;30.58;18.55;;;;;;;;;;4178526;34;20094;-96
2021/05/31 05:26:07;;;;;;;38.75;19.48;;;;;;;;;;4167904;34;20083;-95
2021/05/31 05:28:37;;;;;;;34.92;19.85;;;;;;;;;;4166121;34;20092;-95
2021/05/31 05:31:12;;;;;;;35.85;19.25;;;;;;;;;;4175978;34;20067;-95
2021/05/31 05:33:53;;;;;;;35.13;20.12;;;;;;;;;;4167991;34;20521;-96
2021/05/31 05:47:46;;;;;;;30.88;19.48;;;;;;;;;;4187190;34;20084;-95
2021/05/31 05:50:28;;;;;;;27.48;19.40;;;;;;;;;;4156112;34;20111;-96
2021/05/31 05:52:57;;;;;;;30.48;19.67;;;;;;;;;;4199374;34;20104;-96
2021/05/31 05:56:02;;;;;;;33.45;20.10;;;;;;;;;;4186660;34;20064;-95
2021/05/31 05:58:54;;;;;;;35.20;21.62;;;;;;;;;;4156001;34;20051;-96
2021/05/31 06:01:30;;;;;;;33.47;20.33;;;;;;;;;;4166458;34;20060;-95
2021/05/31 06:04:07;;;;;;;33.08;20.05;;;;;;;;;;4167434;34;20086;-95
2021/05/31 06:06:43;;;;;;;32.35;19.35;;;;;;;;;;4164564;34;20451;-96
2021/05/31 06:09:21;;;;;;;33.40;19.37;;;;;;;;;;4190568;34;20445;-96
2021/05/31 06:12:12;;;;;;;26.75;19.00;;;;;;;;;;4166414;34;20044;-94
2021/05/31 06:14:42;;;;;;;25.67;18.75;;;;;;;;;;4171446;34;20063;-95
2021/05/31 06:17:15;;;;;;;27.08;18.00;;;;;;;;;;4186340;34;20096;-96
2021/05/31 06:19:59;;;;;;;28.52;18.45;;;;;;;;;;4174989;34;20074;-96
2021/05/31 06:22:39;;;;;;;24.27;18.50;;;;;;;;;;4171830;34;20401;-96
2021/05/31 06:25:12;;;;;;;25.05;18.37;;;;;;;;;;4166147;34;20112;-96
2021/05/31 06:27:54;;;;;;;27.20;18.75;;;;;;;;;;4166458;34;20058;-96
2021/05/31 06:30:42;;;;;;;25.27;18.33;;;;;;;;;;4198716;34;20043;-96
2021/05/31 06:33:19;;;;;;;37.88;19.70;;;;;;;;;;4164921;34;20063;-96
2021/05/31 06:35:54;;;;;;;29.63;18.17;;;;;;;;;;4170259;34;20430;-96
2021/05/31 06:38:34;;;;;;;29.30;18.48;;;;;;;;;;4177031;34;20158;-94
2021/05/31 06:41:11;;;;;;;17.40;11.52;;;;;;;;;;4172981;34;20149;-94
2021/05/31 06:43:47;;;;;;;16.20;13.47;;;;;;;;;;4163024;34;20339;-95
2021/05/31 06:46:20;;;;;;;39.47;20.15;;;;;;;;;;4162990;34;20032;-95
2021/05/31 06:48:48;;;;;;;28.12;18.00;;;;;;;;;;4168061;34;20453;-96
2021/05/31 06:51:29;;;;;;;24.98;17.17;;;;;;;;;;4161585;34;20130;-96
2021/05/31 06:54:03;;;;;;;39.55;21.08;;;;;;;;;;4164187;34;20048;-96
2021/05/31 06:56:32;;;;;;;38.47;18.67;;;;;;;;;;4167153;34;20500;-96
2021/05/31 06:59:03;;;;;;;17.83;14.05;;;;;;;;;;4163338;34;20083;-95
2021/05/31 07:01:35;;;;;;;19.33;13.82;;;;;;;;;;4166787;34;20128;-96
2021/05/31 07:04:07;;;;;;;24.77;15.48;;;;;;;;;;4176947;34;20059;-96
2021/05/31 07:06:36;;;;;;;17.90;12.23;;;;;;;;;;4176411;34;20121;-95
2021/05/31 07:09:13;;;;;;;19.42;10.40;;;;;;;;;;4168171;34;20063;-94
2021/05/31 07:11:53;;;;;;;31.50;18.85;;;;;;;;;;4163191;34;20522;-95
2021/05/31 07:14:39;;;;;;;21.02;14.02;;;;;;;;;;4164410;34;20063;-95
2021/05/31 07:17:19;;;;;;;15.82;14.13;;;;;;;;;;4166126;34;20152;-94
2021/05/31 07:19:48;;;;;;;18.52;15.63;;;;;;;;;;4160260;34;20100;-96
2021/05/31 07:22:44;;;;;;;22.65;15.80;;;;;;;;;;4183391;34;20138;-95
2021/05/31 07:25:24;;;;;;;20.45;15.50;;;;;;;;;;4167478;34;20144;-96
2021/05/31 07:27:57;;;;;;;17.30;11.63;;;;;;;;;;4163959;34;20086;-94
2021/05/31 07:30:46;;;;;;;19.00;12.13;;;;;;;;;;4174224;34;20063;-96
2021/05/31 07:33:19;;;;;;;17.87;11.50;;;;;;;;;;4174945;34;20130;-95
2021/05/31 07:35:47;;;;;;;13.27;10.25;;;;;;;;;;4184250;34;20124;-96
2021/05/31 07:38:16;;;;;;;19.02;11.55;;;;;;;;;;4165043;34;20091;-94
2021/05/31 07:40:55;;;;;;;12.82;9.88;;;;;;;;;;4179654;34;20094;-96
2021/05/31 07:43:26;;;;;;;19.33;11.00;;;;;;;;;;4175091;34;20095;-95
2021/05/31 07:46:03;;;;;;;22.75;11.70;;;;;;;;;;4165719;34;20066;-96
2021/05/31 07:48:45;;;;;;;17.83;15.27;;;;;;;;;;4195238;34;20056;-96
2021/05/31 07:51:19;;;;;;;19.75;16.77;;;;;;;;;;4174731;34;20047;-95
2021/05/31 07:53:57;;;;;;;20.37;17.08;;;;;;;;;;4178714;34;20082;-96
2021/05/31 07:56:34;;;;;;;21.25;17.33;;;;;;;;;;4187026;34;20141;-95
2021/05/31 07:59:08;;;;;;;20.20;14.82;;;;;;;;;;4166601;34;20064;-96
2021/05/31 08:01:39;;;;;;;18.80;16.20;;;;;;;;;;4175835;34;20048;-96
2021/05/31 08:04:22;;;;;;;17.35;15.52;;;;;;;;;;4180844;34;20056;-96
2021/05/31 08:07:13;;;;;;;18.48;16.80;;;;;;;;;;4166611;34;20060;-95
2021/05/31 08:09:48;;;;;;;14.98;13.30;;;;;;;;;;4166992;34;20703;-96
2021/05/31 08:12:23;;;;;;;18.40;14.15;;;;;;;;;;4158862;34;20047;-96
2021/05/31 08:14:58;;;;;;;24.80;16.75;;;;;;;;;;4173168;34;20374;-96
2021/05/31 08:17:34;;;;;;;30.02;19.60;;;;;;;;;;4181391;34;20056;-95
2021/05/31 08:20:15;;;;;;;17.45;12.20;;;;;;;;;;4173292;34;20144;-95
2021/05/31 08:22:57;;;;;;;27.85;16.60;;;;;;;;;;4165678;34;20095;-94
2021/05/31 08:25:38;;;;;;;17.30;14.57;;;;;;;;;;4172028;34;20090;-96
2021/05/31 08:28:26;;;;;;;19.12;15.23;;;;;;;;;;4171293;34;20123;-96
2021/05/31 08:31:07;;;;;;;19.20;14.70;;;;;;;;;;4190868;34;20099;-96
2021/05/31 08:34:05;;;;;;;26.33;14.80;;;;;;;;;;4167838;34;20058;-96
2021/05/31 08:36:42;;;;;;;17.50;14.48;;;;;;;;;;4180234;34;20110;-96
2021/05/31 08:39:24;;;;;;;21.33;15.02;;;;;;;;;;4171383;34;20106;-95
2021/05/31 08:42:13;;;;;;;21.40;16.50;;;;;;;;;;4169134;34;20040;-96
2021/05/31 08:45:09;;;;;;;21.98;16.42;;;;;;;;;;4173152;34;20074;-96
2021/05/31 08:48:30;;;;;;;22.05;15.75;;;;;;;;;;4181368;34;21708;-96
2021/05/31 08:51:07;;;;;;;15.23;4.55;;;;;;;;;;4169495;34;20068;-96
2021/05/31 08:53:48;;;;;;;16.95;12.45;;;;;;;;;;4170931;34;20121;-95
2021/05/31 08:56:24;;;;;;;13.65;11.40;;;;;;;;;;4169020;34;20075;-96
2021/05/31 08:59:03;;;;;;;12.52;2.30;;;;;;;;;;4178818;34;20082;-95
2021/05/31 09:01:34;;;;;;;15.32;2.37;;;;;;;;;;4171941;34;20051;-96
2021/05/31 09:04:31;;;;;;;;;;;;;;;;;;;;;
2021/05/31 09:07:18;;;;;;;11.30;2.22;;;;;;;;;;4184910;34;20075;-96
2021/05/31 09:09:54;;;;;;;7.85;1.75;;;;;;;;;;4181635;34;20048;-96
2021/05/31 09:12:42;;;;;;;13.25;2.42;;;;;;;;;;4167727;34;20090;-96
2021/05/31 09:15:21;;;;;;;9.25;2.65;;;;;;;;;;4174896;34;20075;-93
2021/05/31 09:18:15;;;;;;;13.27;4.87;;;;;;;;;;4174902;34;20079;-96
2021/05/31 09:20:57;;;;;;;14.52;6.47;;;;;;;;;;4168755;34;20067;-96
2021/05/31 09:23:40;;;;;;;17.10;8.02;;;;;;;;;;4163254;34;20065;-93
2021/05/31 09:26:12;;;;;;;10.52;6.20;;;;;;;;;;4169240;34;20060;-95
2021/05/31 09:29:04;;;;;;;11.73;3.45;;;;;;;;;;4168176;34;20083;-96
2021/05/31 09:32:18;;;;;;;13.73;8.70;;;;;;;;;;4173819;34;20085;-94
2021/05/31 09:35:22;;;;;;;21.15;8.45;;;;;;;;;;4173039;34;20503;-96
2021/05/31 09:38:14;;;;;;;18.80;14.60;;;;;;;;;;4173056;34;20047;-95
2021/05/31 09:40:59;;;;;;;13.77;3.62;;;;;;;;;;4167861;34;20106;-96
2021/05/31 09:43:51;;;;;;;17.65;11.98;;;;;;;;;;4177391;34;20526;-95
2021/05/31 09:46:22;;;;;;;16.48;13.32;;;;;;;;;;4172550;34;20126;-96
2021/05/31 09:49:26;;;;;;;24.30;6.32;;;;;;;;;;4178245;34;20078;-96
2021/05/31 09:52:07;;;;;;;13.30;2.30;;;;;;;;;;4166947;34;20055;-95
2021/05/31 09:54:51;;;;;;;15.93;3.08;;;;;;;;;;4184599;34;20402;-95
2021/05/31 09:57:29;;;;;;;12.20;2.08;;;;;;;;;;4169223;34;20459;-95
2021/05/31 10:00:12;;;;;;;11.52;2.17;;;;;;;;;;4173305;34;22256;-95
2021/05/31 10:03:41;;;;;;;14.55;2.12;;;;;;;;;;4180421;34;20366;-96
2021/05/31 10:06:10;;;;;;;8.85;2.30;;;;;;;;;;4175537;34;20102;-95
2021/05/31 10:08:50;;;;;;;12.80;5.22;;;;;;;;;;4174733;34;20044;-96
2021/05/31 10:11:27;;;;;;;8.63;5.57;;;;;;;;;;4160282;34;20056;-96
2021/05/31 10:14:10;;;;;;;15.93;8.55;;;;;;;;;;4172766;34;20144;-96
2021/05/31 10:17:13;;;;;;;14.50;3.37;;;;;;;;;;4174189;34;20040;-96
2021/05/31 10:20:30;;;;;;;8.95;2.12;;;;;;;;;;4171025;34;20047;-96
2021/05/31 10:23:08;;;;;;;16.20;2.70;;;;;;;;;;4170951;34;20126;-96
2021/05/31 10:25:44;;;;;;;;;;;;;;;;;;4180818;34;20051;-94
2021/05/31 10:32:08;;;;;;;10.52;2.30;;;;;;;;;;4174951;34;20085;-96
2021/05/31 10:35:21;;;;;;;13.00;2.42;;;;;;;;;;4169792;34;20052;-96
2021/05/31 10:38:19;;;;;;;12.32;2.15;;;;;;;;;;4166899;34;20043;-96
2021/05/31 10:40:52;;;;;;;24.63;3.00;;;;;;;;;;4162510;34;20056;-96
2021/05/31 10:43:44;;;;;;;10.50;2.40;;;;;;;;;;4166140;34;20090;-96
2021/05/31 10:46:47;;;;;;;10.98;2.55;;;;;;;;;;4177647;34;20083;-96
2021/05/31 10:50:02;;;;;;;11.10;1.98;;;;;;;;;;4176202;34;20099;-96
2021/05/31 10:52:36;;;;;;;8.35;2.40;;;;;;;;;;4163274;34;20099;-96
2021/05/31 10:55:13;;;;;;;18.52;2.60;;;;;;;;;;4179406;34;20067;-96
2021/05/31 10:58:23;;;;;;;6.78;1.90;;;;;;;;;;4186296;34;20065;-95
2021/05/31 11:01:04;;;;;;;16.37;2.75;;;;;;;;;;4179816;34;20071;-95
2021/05/31 11:04:03;;;;;;;9.77;1.95;;;;;;;;;;4171312;34;20442;-95
2021/05/31 11:06:38;;;;;;;9.07;2.15;;;;;;;;;;4165108;34;20115;-95
2021/05/31 11:09:34;;;;;;;8.68;1.90;;;;;;;;;;4165042;34;20108;-95
2021/05/31 11:12:05;;;;;;;10.25;2.28;;;;;;;;;;4170346;34;20074;-95
2021/05/31 11:14:47;;;;;;;11.95;2.17;;;;;;;;;;4176060;34;20054;-95
2021/05/31 11:17:29;;;;;;;10.18;2.05;;;;;;;;;;4164285;34;20067;-94
2021/05/31 11:20:24;;;;;;;8.52;1.95;;;;;;;;;;4177919;34;20142;-96
2021/05/31 11:23:04;;;;;;;11.65;2.10;;;;;;;;;;4169508;34;20063;-96
2021/05/31 11:25:48;;;;;;;11.10;2.05;;;;;;;;;;4160762;34;20536;-96
2021/05/31 11:28:31;;;;;;;10.13;2.35;;;;;;;;;;4178534;34;20064;-96
2021/05/31 11:31:22;;;;;;;8.40;1.92;;;;;;;;;;4173539;34;20127;-96
2021/05/31 11:34:09;;;;;;;7.82;1.90;;;;;;;;;;4162068;34;20064;-95
2021/05/31 11:37:03;;;;;;;8.40;1.87;;;;;;;;;;4169694;34;20067;-96
2021/05/31 11:39:45;;;;;;;13.30;2.20;;;;;;;;;;4169366;34;20082;-96
2021/05/31 11:42:28;;;;;;;7.00;1.55;;;;;;;;;;4169799;34;20100;-96
2021/05/31 11:45:03;;;;;;;12.35;2.37;;;;;;;;;;4197617;34;20059;-96
2021/05/31 11:47:55;;;;;;;14.95;2.60;;;;;;;;;;4170523;34;20063;-96
2021/05/31 11:50:30;;;;;;;10.93;2.40;;;;;;;;;;4180930;34;20059;-96
2021/05/31 11:53:05;;;;;;;19.05;2.75;;;;;;;;;;4166283;34;20070;-96
2021/05/31 11:55:40;;;;;;;15.20;2.90;;;;;;;;;;4168106;34;20107;-96
2021/05/31 11:58:19;;;;;;;23.55;2.67;;;;;;;;;;4176262;34;20496;-96
2021/05/31 12:00:56;;;;;;;10.55;2.28;;;;;;;;;;4169623;34;20107;-95
2021/05/31 12:03:27;;;;;;;7.87;1.80;;;;;;;;;;4165301;34;20390;-96
2021/05/31 12:06:17;;;;;;;10.73;1.65;;;;;;;;;;4168391;34;20078;-96
2021/05/31 12:09:03;;;;;;;20.37;2.60;;;;;;;;;;4173161;34;20059;-95
2021/05/31 12:11:40;;;;;;;8.02;2.10;;;;;;;;;;4178555;34;20055;-96
2021/05/31 12:14:19;;;;;;;8.00;1.98;;;;;;;;;;4162736;34;20071;-96
2021/05/31 12:17:03;;;;;;;10.20;1.95;;;;;;;;;;4175886;34;20068;-96
2021/05/31 12:20:01;;;;;;;27.40;3.67;;;;;;;;;;4178890;34;20100;-96
2021/05/31 12:22:34;;;;;;;21.92;2.53;;;;;;;;;;4181169;34;20094;-95
2021/05/31 12:25:10;;;;;;;12.50;1.83;;;;;;;;;;4159612;34;20141;-96
2021/05/31 12:27:46;;;;;;;10.35;1.85;;;;;;;;;;4165528;34;20124;-96
2021/05/31 12:30:28;;;;;;;9.70;1.83;;;;;;;;;;4171722;34;20093;-95
2021/05/31 12:33:20;;;;;;;9.88;2.03;;;;;;;;;;4166310;34;20048;-96
2021/05/31 12:36:11;;;;;;;14.55;2.00;;;;;;;;;;4184661;34;20066;-96
2021/05/31 12:38:50;;;;;;;13.75;2.35;;;;;;;;;;4188230;34;20087;-94
2021/05/31 12:41:29;;;;;;;11.55;2.00;;;;;;;;;;4185981;34;20094;-96
2021/05/31 12:44:06;;;;;;;11.50;2.17;;;;;;;;;;4177403;34;20615;-96
2021/05/31 12:46:39;;;;;;;11.70;1.85;;;;;;;;;;4164796;34;20091;-95
2021/05/31 12:49:15;;;;;;;11.00;2.20;;;;;;;;;;4164839;34;20446;-95
2021/05/31 12:51:57;;;;;;;18.08;2.53;;;;;;;;;;4163086;34;20086;-94
2021/05/31 12:54:34;;;;;;;8.73;2.00;;;;;;;;;;4166531;34;20090;-96
2021/05/31 12:57:17;;;;;;;9.75;1.73;;;;;;;;;;4184837;34;20107;-96
2021/05/31 12:59:49;;;;;;;15.98;2.12;;;;;;;;;;4162866;34;20103;-95
2021/05/31 13:02:34;;;;;;;8.75;1.83;;;;;;;;;;4185291;34;20098;-96
2021/05/31 13:05:08;;;;;;;9.73;1.90;;;;;;;;;;4159422;34;20135;-96
2021/05/31 13:07:51;;;;;;;9.05;1.67;;;;;;;;;;4174115;34;20156;-95
2021/05/31 13:10:34;;;;;;;15.88;2.37;;;;;;;;;;4174361;34;20075;-96
2021/05/31 13:13:16;;;;;;;8.73;1.87;;;;;;;;;;4175236;34;20067;-96
2021/05/31 13:15:57;;;;;;;9.85;1.70;;;;;;;;;;4156633;34;20125;-96
2021/05/31 13:18:33;;;;;;;12.30;2.47;;;;;;;;;;4165965;34;20090;-96
2021/05/31 13:21:23;;;;;;;35.80;4.68;;;;;;;;;;4187723;34;20072;-96
2021/05/31 13:24:00;;;;;;;7.90;1.90;;;;;;;;;;4187511;34;22256;-96
2021/05/31 13:26:38;;;;;;;7.62;1.73;;;;;;;;;;4175512;34;20070;-96
2021/05/31 13:29:26;;;;;;;7.95;2.00;;;;;;;;;;4179088;34;20056;-95
2021/05/31 13:32:04;;;;;;;52.75;5.20;;;;;;;;;;4170822;34;20138;-96
2021/05/31 13:35:06;;;;;;;11.38;2.35;;;;;;;;;;4161829;34;20055;-96
2021/05/31 13:37:45;;;;;;;9.60;2.03;;;;;;;;;;4173031;34;20087;-95
2021/05/31 13:40:36;;;;;;;13.43;2.08;;;;;;;;;;4165674;34;20134;-95
2021/05/31 13:43:14;;;;;;;8.45;1.98;;;;;;;;;;4169867;34;20048;-96
2021/05/31 13:45:47;;;;;;;8.02;1.60;;;;;;;;;;4172848;34;20067;-96
2021/05/31 13:48:37;;;;;;;13.70;2.72;;;;;;;;;;4163990;34;20055;-95
2021/05/31 13:51:14;;;;;;;7.43;2.00;;;;;;;;;;4183044;34;20119;-95
2021/05/31 13:53:48;;;;;;;10.20;1.90;;;;;;;;;;4183883;34;20059;-96
2021/05/31 13:56:30;;;;;;;12.68;2.30;;;;;;;;;;4162533;34;20071;-96
2021/05/31 13:59:02;;;;;;;7.50;1.80;;;;;;;;;;4161036;34;20099;-96
2021/05/31 14:01:56;;;;;;;8.32;2.00;;;;;;;;;;4174871;34;20070;-95
2021/05/31 14:04:29;;;;;;;8.13;1.80;;;;;;;;;;4175392;34;20494;-96
2021/05/31 14:06:58;;;;;;;7.68;1.80;;;;;;;;;;4168178;34;20078;-94
2021/05/31 14:09:34;;;;;;;10.27;1.73;;;;;;;;;;4180073;34;20059;-94
2021/05/31 14:12:08;;;;;;;6.32;1.70;;;;;;;;;;4178141;34;20085;-94
2021/05/31 14:15:03;;;;;;;9.43;1.95;;;;;;;;;;4174733;34;20078;-95
2021/05/31 14:17:36;;;;;;;9.43;1.73;;;;;;;;;;4164107;34;20048;-95
2021/05/31 14:20:16;;;;;;;8.30;1.80;;;;;;;;;;4181369;34;20091;-94
2021/05/31 14:22:54;;;;;;;9.57;2.45;;;;;;;;;;4167822;34;20069;-94
2021/05/31 14:25:30;;;;;;;14.35;1.98;;;;;;;;;;4161854;34;20693;-94
2021/05/31 14:28:12;;;;;;;8.52;2.10;;;;;;;;;;4184602;34;20099;-93
2021/05/31 14:30:47;;;;;;;10.02;1.60;;;;;;;;;;4161393;34;20113;-96
2021/05/31 14:33:36;;;;;;;7.37;1.77;;;;;;;;;;4170213;34;20133;-93
2021/05/31 14:36:12;;;;;;;9.32;2.00;;;;;;;;;;4171157;34;20055;-94
2021/05/31 14:38:58;;;;;;;11.05;2.30;;;;;;;;;;4177681;34;20064;-95
2021/05/31 14:41:41;;;;;;;6.10;1.55;;;;;;;;;;4181349;34;20090;-94
2021/05/31 14:44:14;;;;;;;7.22;1.50;;;;;;;;;;4179419;34;20071;-93
2021/05/31 14:46:49;;;;;;;9.88;2.22;;;;;;;;;;4168621;34;20093;-93
2021/05/31 14:49:29;;;;;;;10.98;1.90;;;;;;;;;;4166238;34;20052;-93
2021/05/31 14:51:58;;;;;;;7.87;1.70;;;;;;;;;;4171046;34;20548;-94
2021/05/31 14:54:34;;;;;;;11.12;2.00;;;;;;;;;;4166513;34;20108;-93
2021/05/31 14:57:25;;;;;;;5.50;1.48;;;;;;;;;;4161603;34;20448;-94
2021/05/31 15:00:14;;;;;;;8.50;1.60;;;;;;;;;;4164802;34;20082;-95
2021/05/31 15:03:11;;;;;;;13.38;2.62;;;;;;;;;;4184097;34;20064;-96
2021/05/31 15:06:08;;;;;;;15.45;1.90;;;;;;;;;;4168329;34;20521;-94
2021/05/31 15:09:05;;;;;;;12.43;2.08;;;;;;;;;;4148876;34;20414;-94
2021/05/31 15:11:41;;;;;;;8.05;2.08;;;;;;;;;;4173672;34;20438;-93
2021/05/31 15:14:23;;;;;;;8.77;1.75;;;;;;;;;;4165911;34;20066;-94
2021/05/31 15:17:02;;;;;;;9.15;1.52;;;;;;;;;;4170481;34;20095;-94
2021/05/31 15:19:38;;;;;;;6.55;1.55;;;;;;;;;;4171828;34;20110;-93
2021/05/31 15:22:25;;;;;;;6.70;1.55;;;;;;;;;;4168853;34;20533;-93
2021/05/31 15:24:59;;;;;;;6.22;1.70;;;;;;;;;;4173859;34;20082;-95
2021/05/31 15:27:40;;;;;;;15.98;2.20;;;;;;;;;;4171320;34;20052;-95
2021/05/31 15:30:22;;;;;;;9.93;1.67;;;;;;;;;;4174313;34;20076;-95
2021/05/31 15:33:00;;;;;;;9.20;1.75;;;;;;;;;;4173257;34;20130;-93
2021/05/31 15:35:35;;;;;;;8.20;1.85;;;;;;;;;;4182314;34;20118;-94
2021/05/31 15:41:11;;;;;;;8.25;1.65;;;;;;;;;;4179898;34;20070;-94
2021/05/31 15:43:53;;;;;;;16.83;2.35;;;;;;;;;;4170389;34;20553;-94
2021/05/31 15:46:36;;;;;;;11.43;1.77;;;;;;;;;;4162167;34;20067;-95
2021/05/31 15:49:19;;;;;;;15.90;2.47;;;;;;;;;;4160780;34;20460;-93
2021/05/31 15:51:54;;;;;;;6.55;1.87;;;;;;;;;;4157947;34;20114;-94
2021/05/31 15:54:37;;;;;;;11.32;2.10;;;;;;;;;;4183226;34;20064;-95
2021/05/31 15:57:37;;;;;;;9.52;1.70;;;;;;;;;;4176766;34;20078;-94
2021/05/31 16:00:12;;;;;;;10.45;1.87;;;;;;;;;;4158989;34;20060;-94
2021/05/31 16:02:54;;;;;;;9.30;1.80;;;;;;;;;;4181097;34;20168;-95
2021/05/31 16:05:29;;;;;;;6.80;2.03;;;;;;;;;;4171816;34;20106;-93